sensor_id;sensor_type;location;lat;lon;timestamp;P1;durP1;ratioP1;P2;durP2;ratioP2
7361;SDS011;3721;44.490;11.220;2022-08-11T00:01:51;6.27;;;2.80;;
7361;SDS011;3721;44.490;11.220;2022-08-11T00:04:23;4.47;;;2.57;;
7361;SDS011;3721;44.490;11.220;2022-08-11T00:06:50;4.97;;;2.63;;
7361;SDS011;3721;44.490;11.220;2022-08-11T00:09:18;5.50;;;2.50;;
7361;SDS011;3721;44.490;11.220;2022-08-11T00:11:53;6.77;;;2.53;;
7361;SDS011;3721;44.490;11.220;2022-08-11T00:14:28;7.10;;;3.00;;
7361;SDS011;3721;44.490;11.220;2022-08-11T00:17:03;5.33;;;2.77;;
7361;SDS011;3721;44.490;11.220;2022-08-11T00:19:33;4.87;;;2.80;;
7361;SDS011;3721;44.490;11.220;2022-08-11T00:22:01;4.90;;;2.63;;
7361;SDS011;3721;44.490;11.220;2022-08-11T00:24:31;4.07;;;2.50;;
7361;SDS011;3721;44.490;11.220;2022-08-11T00:26:58;7.97;;;2.70;;
7361;SDS011;3721;44.490;11.220;2022-08-11T00:29:25;4.00;;;2.60;;
7361;SDS011;3721;44.490;11.220;2022-08-11T00:31:51;3.90;;;2.50;;
7361;SDS011;3721;44.490;11.220;2022-08-11T00:34:26;4.50;;;2.67;;
7361;SDS011;3721;44.490;11.220;2022-08-11T00:36:58;4.90;;;2.50;;
7361;SDS011;3721;44.490;11.220;2022-08-11T00:39:26;4.40;;;2.50;;
7361;SDS011;3721;44.490;11.220;2022-08-11T00:47:50;5.43;;;3.47;;
7361;SDS011;3721;44.490;11.220;2022-08-11T01:48:40;12.80;;;2.90;;
7361;SDS011;3721;44.490;11.220;2022-08-11T01:54:06;5.87;;;3.17;;
7361;SDS011;3721;44.490;11.220;2022-08-11T01:59:18;6.60;;;3.53;;
7361;SDS011;3721;44.490;11.220;2022-08-11T02:05:16;5.40;;;3.17;;
7361;SDS011;3721;44.490;11.220;2022-08-11T02:08:20;7.90;;;2.80;;
7361;SDS011;3721;44.490;11.220;2022-08-11T02:11:08;5.30;;;2.70;;
7361;SDS011;3721;44.490;11.220;2022-08-11T02:16:50;6.20;;;3.50;;
7361;SDS011;3721;44.490;11.220;2022-08-11T02:22:30;6.53;;;2.90;;
7361;SDS011;3721;44.490;11.220;2022-08-11T02:25:33;5.67;;;3.13;;
7361;SDS011;3721;44.490;11.220;2022-08-11T02:28:24;6.30;;;3.27;;
7361;SDS011;3721;44.490;11.220;2022-08-11T02:31:07;12.23;;;3.00;;
7361;SDS011;3721;44.490;11.220;2022-08-11T02:37:15;8.67;;;2.90;;
7361;SDS011;3721;44.490;11.220;2022-08-11T02:54:20;6.07;;;3.00;;
7361;SDS011;3721;44.490;11.220;2022-08-11T03:02:23;8.00;;;2.77;;
7361;SDS011;3721;44.490;11.220;2022-08-11T03:16:28;5.73;;;3.30;;
7361;SDS011;3721;44.490;11.220;2022-08-11T03:19:33;6.10;;;3.20;;
7361;SDS011;3721;44.490;11.220;2022-08-11T03:25:01;9.57;;;3.27;;
7361;SDS011;3721;44.490;11.220;2022-08-11T03:30:22;7.93;;;3.33;;
7361;SDS011;3721;44.490;11.220;2022-08-11T03:32:56;6.90;;;4.23;;
7361;SDS011;3721;44.490;11.220;2022-08-11T03:38:47;6.10;;;3.63;;
7361;SDS011;3721;44.490;11.220;2022-08-11T03:47:11;6.07;;;3.60;;
7361;SDS011;3721;44.490;11.220;2022-08-11T03:53:42;7.33;;;3.60;;
7361;SDS011;3721;44.490;11.220;2022-08-11T04:07:07;8.03;;;3.50;;
7361;SDS011;3721;44.490;11.220;2022-08-11T04:15:23;8.87;;;2.93;;
7361;SDS011;3721;44.490;11.220;2022-08-11T04:57:34;7.37;;;3.60;;
7361;SDS011;3721;44.490;11.220;2022-08-11T05:00:31;5.00;;;2.90;;
7361;SDS011;3721;44.490;11.220;2022-08-11T05:17:43;7.07;;;2.90;;
7361;SDS011;3721;44.490;11.220;2022-08-11T05:20:39;5.43;;;2.83;;
7361;SDS011;3721;44.490;11.220;2022-08-11T05:23:30;6.20;;;3.20;;
7361;SDS011;3721;44.490;11.220;2022-08-11T05:26:16;8.37;;;4.03;;
7361;SDS011;3721;44.490;11.220;2022-08-11T05:29:02;5.83;;;3.20;;
7361;SDS011;3721;44.490;11.220;2022-08-11T05:32:08;9.23;;;3.17;;
7361;SDS011;3721;44.490;11.220;2022-08-11T05:34:58;6.40;;;2.97;;
7361;SDS011;3721;44.490;11.220;2022-08-11T05:40:09;4.83;;;2.70;;
7361;SDS011;3721;44.490;11.220;2022-08-11T05:42:58;5.73;;;3.20;;
7361;SDS011;3721;44.490;11.220;2022-08-11T05:45:54;6.40;;;2.80;;
7361;SDS011;3721;44.490;11.220;2022-08-11T05:48:43;4.37;;;2.57;;
7361;SDS011;3721;44.490;11.220;2022-08-11T05:51:49;7.50;;;3.13;;
7361;SDS011;3721;44.490;11.220;2022-08-11T05:54:33;4.70;;;2.80;;
7361;SDS011;3721;44.490;11.220;2022-08-11T05:57:22;4.03;;;2.80;;
7361;SDS011;3721;44.490;11.220;2022-08-11T05:59:56;4.50;;;2.97;;
7361;SDS011;3721;44.490;11.220;2022-08-11T06:02:29;5.77;;;2.80;;
7361;SDS011;3721;44.490;11.220;2022-08-11T06:04:55;7.63;;;3.00;;
7361;SDS011;3721;44.490;11.220;2022-08-11T06:07:30;6.00;;;2.83;;
7361;SDS011;3721;44.490;11.220;2022-08-11T06:09:57;5.00;;;2.80;;
7361;SDS011;3721;44.490;11.220;2022-08-11T06:12:27;5.60;;;3.00;;
7361;SDS011;3721;44.490;11.220;2022-08-11T06:14:56;5.27;;;2.97;;
7361;SDS011;3721;44.490;11.220;2022-08-11T06:17:27;6.40;;;2.90;;
7361;SDS011;3721;44.490;11.220;2022-08-11T06:20:02;5.83;;;3.57;;
7361;SDS011;3721;44.490;11.220;2022-08-11T06:22:47;10.80;;;3.50;;
7361;SDS011;3721;44.490;11.220;2022-08-11T06:25:20;4.70;;;2.83;;
7361;SDS011;3721;44.490;11.220;2022-08-11T06:27:47;5.43;;;2.97;;
7361;SDS011;3721;44.490;11.220;2022-08-11T06:33:19;7.73;;;3.00;;
7361;SDS011;3721;44.490;11.220;2022-08-11T06:36:04;6.40;;;3.00;;
7361;SDS011;3721;44.490;11.220;2022-08-11T06:44:01;7.53;;;3.10;;
7361;SDS011;3721;44.490;11.220;2022-08-11T06:46:34;4.70;;;2.93;;
7361;SDS011;3721;44.490;11.220;2022-08-11T06:49:03;5.10;;;3.30;;
7361;SDS011;3721;44.490;11.220;2022-08-11T06:51:52;4.53;;;2.73;;
7361;SDS011;3721;44.490;11.220;2022-08-11T06:54:20;6.60;;;3.00;;
7361;SDS011;3721;44.490;11.220;2022-08-11T06:56:47;5.83;;;2.77;;
7361;SDS011;3721;44.490;11.220;2022-08-11T06:59:32;6.53;;;2.90;;
7361;SDS011;3721;44.490;11.220;2022-08-11T07:02:23;6.80;;;2.70;;
7361;SDS011;3721;44.490;11.220;2022-08-11T07:05:01;5.73;;;2.83;;
7361;SDS011;3721;44.490;11.220;2022-08-11T07:13:15;4.67;;;2.70;;
7361;SDS011;3721;44.490;11.220;2022-08-11T07:16:04;7.10;;;3.13;;
7361;SDS011;3721;44.490;11.220;2022-08-11T07:18:32;4.27;;;2.57;;
7361;SDS011;3721;44.490;11.220;2022-08-11T07:24:17;9.57;;;3.00;;
7361;SDS011;3721;44.490;11.220;2022-08-11T07:27:13;4.40;;;2.53;;
7361;SDS011;3721;44.490;11.220;2022-08-11T07:30:00;7.50;;;2.80;;
7361;SDS011;3721;44.490;11.220;2022-08-11T07:32:33;4.10;;;2.27;;
7361;SDS011;3721;44.490;11.220;2022-08-11T07:35:08;5.53;;;3.40;;
7361;SDS011;3721;44.490;11.220;2022-08-11T07:37:38;6.07;;;2.70;;
7361;SDS011;3721;44.490;11.220;2022-08-11T07:40:07;4.90;;;2.40;;
7361;SDS011;3721;44.490;11.220;2022-08-11T07:42:34;5.23;;;3.20;;
7361;SDS011;3721;44.490;11.220;2022-08-11T07:45:03;4.33;;;2.40;;
7361;SDS011;3721;44.490;11.220;2022-08-11T07:47:49;5.00;;;2.70;;
7361;SDS011;3721;44.490;11.220;2022-08-11T07:50:39;5.83;;;2.60;;
7361;SDS011;3721;44.490;11.220;2022-08-11T07:53:25;5.40;;;2.67;;
7361;SDS011;3721;44.490;11.220;2022-08-11T07:55:52;14.73;;;2.90;;
7361;SDS011;3721;44.490;11.220;2022-08-11T07:58:22;6.30;;;2.90;;
7361;SDS011;3721;44.490;11.220;2022-08-11T08:01:08;7.73;;;3.30;;
7361;SDS011;3721;44.490;11.220;2022-08-11T08:03:55;3.87;;;2.40;;
7361;SDS011;3721;44.490;11.220;2022-08-11T08:06:42;9.73;;;3.00;;
7361;SDS011;3721;44.490;11.220;2022-08-11T08:09:27;5.93;;;2.83;;
7361;SDS011;3721;44.490;11.220;2022-08-11T08:12:15;3.93;;;2.30;;
7361;SDS011;3721;44.490;11.220;2022-08-11T08:15:08;5.33;;;2.90;;
7361;SDS011;3721;44.490;11.220;2022-08-11T08:17:54;5.70;;;2.40;;
7361;SDS011;3721;44.490;11.220;2022-08-11T08:20:27;4.83;;;2.57;;
7361;SDS011;3721;44.490;11.220;2022-08-11T08:23:02;7.33;;;2.53;;
7361;SDS011;3721;44.490;11.220;2022-08-11T08:25:30;6.23;;;2.60;;
7361;SDS011;3721;44.490;11.220;2022-08-11T08:27:58;6.00;;;2.90;;
7361;SDS011;3721;44.490;11.220;2022-08-11T08:30:26;5.70;;;2.80;;
7361;SDS011;3721;44.490;11.220;2022-08-11T08:33:12;4.20;;;2.37;;
7361;SDS011;3721;44.490;11.220;2022-08-11T08:35:54;4.67;;;2.30;;
7361;SDS011;3721;44.490;11.220;2022-08-11T08:38:49;7.57;;;2.40;;
7361;SDS011;3721;44.490;11.220;2022-08-11T08:41:21;4.70;;;2.50;;
7361;SDS011;3721;44.490;11.220;2022-08-11T08:43:50;6.07;;;2.63;;
7361;SDS011;3721;44.490;11.220;2022-08-11T08:46:26;8.03;;;2.80;;
7361;SDS011;3721;44.490;11.220;2022-08-11T08:49:02;5.50;;;2.40;;
7361;SDS011;3721;44.490;11.220;2022-08-11T08:51:29;4.60;;;2.90;;
7361;SDS011;3721;44.490;11.220;2022-08-11T08:54:04;4.03;;;2.53;;
7361;SDS011;3721;44.490;11.220;2022-08-11T08:56:33;4.50;;;2.47;;
7361;SDS011;3721;44.490;11.220;2022-08-11T08:59:03;6.60;;;2.40;;
7361;SDS011;3721;44.490;11.220;2022-08-11T09:01:35;6.23;;;2.47;;
7361;SDS011;3721;44.490;11.220;2022-08-11T09:04:09;4.10;;;2.50;;
7361;SDS011;3721;44.490;11.220;2022-08-11T09:06:36;4.50;;;2.50;;
7361;SDS011;3721;44.490;11.220;2022-08-11T09:09:04;6.57;;;2.67;;
7361;SDS011;3721;44.490;11.220;2022-08-11T09:11:33;9.20;;;2.97;;
7361;SDS011;3721;44.490;11.220;2022-08-11T09:14:25;5.53;;;2.60;;
7361;SDS011;3721;44.490;11.220;2022-08-11T09:17:16;4.93;;;2.50;;
7361;SDS011;3721;44.490;11.220;2022-08-11T09:19:43;4.40;;;2.50;;
7361;SDS011;3721;44.490;11.220;2022-08-11T09:22:11;4.43;;;2.10;;
7361;SDS011;3721;44.490;11.220;2022-08-11T09:24:56;10.33;;;2.57;;
7361;SDS011;3721;44.490;11.220;2022-08-11T09:27:40;11.33;;;2.60;;
7361;SDS011;3721;44.490;11.220;2022-08-11T09:30:07;4.27;;;2.40;;
7361;SDS011;3721;44.490;11.220;2022-08-11T09:32:35;5.83;;;2.60;;
7361;SDS011;3721;44.490;11.220;2022-08-11T09:35:03;6.10;;;2.43;;
7361;SDS011;3721;44.490;11.220;2022-08-11T09:37:29;5.27;;;2.87;;
7361;SDS011;3721;44.490;11.220;2022-08-11T09:40:15;7.47;;;2.30;;
7361;SDS011;3721;44.490;11.220;2022-08-11T09:42:54;5.80;;;2.90;;
7361;SDS011;3721;44.490;11.220;2022-08-11T09:45:39;13.70;;;2.30;;
7361;SDS011;3721;44.490;11.220;2022-08-11T09:48:07;5.27;;;2.37;;
7361;SDS011;3721;44.490;11.220;2022-08-11T09:50:35;8.10;;;2.57;;
7361;SDS011;3721;44.490;11.220;2022-08-11T09:53:03;4.37;;;2.80;;
7361;SDS011;3721;44.490;11.220;2022-08-11T09:55:31;7.10;;;2.53;;
7361;SDS011;3721;44.490;11.220;2022-08-11T09:57:58;6.50;;;2.40;;
7361;SDS011;3721;44.490;11.220;2022-08-11T10:00:47;8.10;;;2.27;;
7361;SDS011;3721;44.490;11.220;2022-08-11T10:05:48;10.70;;;2.40;;
7361;SDS011;3721;44.490;11.220;2022-08-11T10:08:38;3.40;;;2.00;;
7361;SDS011;3721;44.490;11.220;2022-08-11T10:11:08;10.53;;;2.60;;
7361;SDS011;3721;44.490;11.220;2022-08-11T10:13:42;4.40;;;2.00;;
7361;SDS011;3721;44.490;11.220;2022-08-11T10:16:28;4.57;;;2.10;;
7361;SDS011;3721;44.490;11.220;2022-08-11T10:18:58;4.13;;;2.00;;
7361;SDS011;3721;44.490;11.220;2022-08-11T10:22:01;3.50;;;2.10;;
7361;SDS011;3721;44.490;11.220;2022-08-11T10:24:52;3.70;;;2.00;;
7361;SDS011;3721;44.490;11.220;2022-08-11T10:27:38;9.43;;;2.40;;
7361;SDS011;3721;44.490;11.220;2022-08-11T10:30:07;5.93;;;2.07;;
7361;SDS011;3721;44.490;11.220;2022-08-11T10:32:52;5.67;;;2.10;;
7361;SDS011;3721;44.490;11.220;2022-08-11T10:35:36;3.83;;;2.10;;
7361;SDS011;3721;44.490;11.220;2022-08-11T10:38:02;4.90;;;1.83;;
7361;SDS011;3721;44.490;11.220;2022-08-11T10:40:28;4.53;;;2.47;;
7361;SDS011;3721;44.490;11.220;2022-08-11T10:42:57;6.17;;;2.10;;
7361;SDS011;3721;44.490;11.220;2022-08-11T10:45:30;5.63;;;2.20;;
7361;SDS011;3721;44.490;11.220;2022-08-11T10:48:23;3.93;;;2.43;;
7361;SDS011;3721;44.490;11.220;2022-08-11T10:50:50;4.83;;;2.00;;
7361;SDS011;3721;44.490;11.220;2022-08-11T10:53:37;3.43;;;2.13;;
7361;SDS011;3721;44.490;11.220;2022-08-11T10:56:23;5.57;;;2.17;;
7361;SDS011;3721;44.490;11.220;2022-08-11T10:59:10;8.00;;;2.30;;
7361;SDS011;3721;44.490;11.220;2022-08-11T11:01:37;4.83;;;2.07;;
7361;SDS011;3721;44.490;11.220;2022-08-11T11:04:07;4.60;;;1.97;;
7361;SDS011;3721;44.490;11.220;2022-08-11T11:09:49;4.10;;;1.93;;
7361;SDS011;3721;44.490;11.220;2022-08-11T11:15:29;3.53;;;2.17;;
7361;SDS011;3721;44.490;11.220;2022-08-11T11:18:18;4.07;;;2.17;;
7361;SDS011;3721;44.490;11.220;2022-08-11T11:23:25;4.17;;;2.00;;
7361;SDS011;3721;44.490;11.220;2022-08-11T11:25:59;5.80;;;2.00;;
7361;SDS011;3721;44.490;11.220;2022-08-11T11:28:55;6.77;;;2.53;;
7361;SDS011;3721;44.490;11.220;2022-08-11T11:31:40;3.30;;;2.00;;
7361;SDS011;3721;44.490;11.220;2022-08-11T11:37:16;7.70;;;2.13;;
7361;SDS011;3721;44.490;11.220;2022-08-11T11:39:42;3.93;;;2.23;;
7361;SDS011;3721;44.490;11.220;2022-08-11T11:42:09;4.07;;;2.10;;
7361;SDS011;3721;44.490;11.220;2022-08-11T11:44:39;3.60;;;2.00;;
7361;SDS011;3721;44.490;11.220;2022-08-11T11:47:09;3.30;;;1.90;;
7361;SDS011;3721;44.490;11.220;2022-08-11T11:49:36;5.30;;;2.10;;
7361;SDS011;3721;44.490;11.220;2022-08-11T11:52:07;4.17;;;2.20;;
7361;SDS011;3721;44.490;11.220;2022-08-11T11:54:37;4.43;;;2.13;;
7361;SDS011;3721;44.490;11.220;2022-08-11T11:57:04;3.73;;;1.80;;
7361;SDS011;3721;44.490;11.220;2022-08-11T11:59:53;3.40;;;1.63;;
7361;SDS011;3721;44.490;11.220;2022-08-11T12:02:38;3.80;;;2.00;;
7361;SDS011;3721;44.490;11.220;2022-08-11T12:05:05;7.37;;;2.40;;
7361;SDS011;3721;44.490;11.220;2022-08-11T12:07:34;4.87;;;1.83;;
7361;SDS011;3721;44.490;11.220;2022-08-11T12:10:19;4.33;;;2.43;;
7361;SDS011;3721;44.490;11.220;2022-08-11T12:12:46;5.73;;;2.17;;
7361;SDS011;3721;44.490;11.220;2022-08-11T12:15:31;3.50;;;2.20;;
7361;SDS011;3721;44.490;11.220;2022-08-11T12:17:58;4.33;;;2.30;;
7361;SDS011;3721;44.490;11.220;2022-08-11T12:20:25;6.20;;;2.23;;
7361;SDS011;3721;44.490;11.220;2022-08-11T12:22:52;4.10;;;2.03;;
7361;SDS011;3721;44.490;11.220;2022-08-11T12:25:38;4.67;;;2.50;;
7361;SDS011;3721;44.490;11.220;2022-08-11T12:28:23;4.00;;;2.17;;
7361;SDS011;3721;44.490;11.220;2022-08-11T12:30:50;3.53;;;2.03;;
7361;SDS011;3721;44.490;11.220;2022-08-11T12:33:17;9.63;;;2.33;;
7361;SDS011;3721;44.490;11.220;2022-08-11T12:35:44;5.37;;;2.20;;
7361;SDS011;3721;44.490;11.220;2022-08-11T12:38:13;5.90;;;2.33;;
7361;SDS011;3721;44.490;11.220;2022-08-11T12:40:41;4.23;;;2.40;;
7361;SDS011;3721;44.490;11.220;2022-08-11T12:43:27;5.13;;;2.10;;
7361;SDS011;3721;44.490;11.220;2022-08-11T12:46:22;5.90;;;2.23;;
7361;SDS011;3721;44.490;11.220;2022-08-11T12:48:57;5.37;;;2.00;;
7361;SDS011;3721;44.490;11.220;2022-08-11T12:51:48;3.43;;;2.17;;
7361;SDS011;3721;44.490;11.220;2022-08-11T12:57:11;6.70;;;2.30;;
7361;SDS011;3721;44.490;11.220;2022-08-11T13:00:00;4.43;;;1.90;;
7361;SDS011;3721;44.490;11.220;2022-08-11T13:02:48;6.57;;;2.63;;
7361;SDS011;3721;44.490;11.220;2022-08-11T13:05:33;6.27;;;2.30;;
7361;SDS011;3721;44.490;11.220;2022-08-11T13:08:01;3.33;;;2.00;;
7361;SDS011;3721;44.490;11.220;2022-08-11T13:10:27;4.93;;;2.30;;
7361;SDS011;3721;44.490;11.220;2022-08-11T13:13:14;3.97;;;2.27;;
7361;SDS011;3721;44.490;11.220;2022-08-11T13:15:41;4.07;;;2.33;;
7361;SDS011;3721;44.490;11.220;2022-08-11T13:18:09;5.37;;;2.00;;
7361;SDS011;3721;44.490;11.220;2022-08-11T13:20:39;6.30;;;2.33;;
7361;SDS011;3721;44.490;11.220;2022-08-11T13:23:08;6.13;;;2.30;;
7361;SDS011;3721;44.490;11.220;2022-08-11T13:25:36;4.07;;;2.00;;
7361;SDS011;3721;44.490;11.220;2022-08-11T13:28:03;6.40;;;2.67;;
7361;SDS011;3721;44.490;11.220;2022-08-11T13:30:30;4.50;;;2.00;;
7361;SDS011;3721;44.490;11.220;2022-08-11T13:33:15;4.03;;;2.10;;
7361;SDS011;3721;44.490;11.220;2022-08-11T13:35:43;4.00;;;2.20;;
7361;SDS011;3721;44.490;11.220;2022-08-11T13:38:12;3.90;;;2.20;;
7361;SDS011;3721;44.490;11.220;2022-08-11T13:40:39;3.70;;;2.27;;
7361;SDS011;3721;44.490;11.220;2022-08-11T13:43:05;4.40;;;2.27;;
7361;SDS011;3721;44.490;11.220;2022-08-11T13:45:33;5.80;;;2.50;;
7361;SDS011;3721;44.490;11.220;2022-08-11T13:48:00;4.13;;;2.10;;
7361;SDS011;3721;44.490;11.220;2022-08-11T13:50:30;3.80;;;2.00;;
7361;SDS011;3721;44.490;11.220;2022-08-11T13:53:17;3.47;;;2.10;;
7361;SDS011;3721;44.490;11.220;2022-08-11T13:55:46;5.67;;;2.33;;
7361;SDS011;3721;44.490;11.220;2022-08-11T13:58:13;3.90;;;2.10;;
7361;SDS011;3721;44.490;11.220;2022-08-11T14:00:40;8.53;;;2.50;;
7361;SDS011;3721;44.490;11.220;2022-08-11T14:03:10;3.57;;;2.00;;
7361;SDS011;3721;44.490;11.220;2022-08-11T14:05:38;5.70;;;1.90;;
7361;SDS011;3721;44.490;11.220;2022-08-11T14:08:13;5.10;;;2.10;;
7361;SDS011;3721;44.490;11.220;2022-08-11T14:10:42;4.13;;;2.20;;
7361;SDS011;3721;44.490;11.220;2022-08-11T14:13:10;4.47;;;2.20;;
7361;SDS011;3721;44.490;11.220;2022-08-11T14:16:00;4.00;;;2.20;;
7361;SDS011;3721;44.490;11.220;2022-08-11T14:18:35;7.83;;;2.30;;
7361;SDS011;3721;44.490;11.220;2022-08-11T14:21:07;5.73;;;2.20;;
7361;SDS011;3721;44.490;11.220;2022-08-11T14:23:55;5.03;;;2.27;;
7361;SDS011;3721;44.490;11.220;2022-08-11T14:26:23;3.83;;;2.10;;
7361;SDS011;3721;44.490;11.220;2022-08-11T14:31:33;4.10;;;2.20;;
7361;SDS011;3721;44.490;11.220;2022-08-11T14:34:02;6.30;;;2.20;;
7361;SDS011;3721;44.490;11.220;2022-08-11T14:36:35;4.30;;;1.83;;
7361;SDS011;3721;44.490;11.220;2022-08-11T14:39:05;8.70;;;2.43;;
7361;SDS011;3721;44.490;11.220;2022-08-11T14:41:36;4.00;;;2.20;;
7361;SDS011;3721;44.490;11.220;2022-08-11T14:44:23;4.10;;;1.93;;
7361;SDS011;3721;44.490;11.220;2022-08-11T14:47:09;5.10;;;2.00;;
7361;SDS011;3721;44.490;11.220;2022-08-11T14:49:39;4.10;;;2.40;;
7361;SDS011;3721;44.490;11.220;2022-08-11T14:52:08;5.70;;;2.07;;
7361;SDS011;3721;44.490;11.220;2022-08-11T14:54:35;4.90;;;2.03;;
7361;SDS011;3721;44.490;11.220;2022-08-11T14:57:20;3.20;;;1.90;;
7361;SDS011;3721;44.490;11.220;2022-08-11T14:59:48;4.20;;;2.13;;
7361;SDS011;3721;44.490;11.220;2022-08-11T15:02:14;3.60;;;1.90;;
7361;SDS011;3721;44.490;11.220;2022-08-11T15:05:01;4.60;;;2.13;;
7361;SDS011;3721;44.490;11.220;2022-08-11T15:07:30;4.10;;;2.10;;
7361;SDS011;3721;44.490;11.220;2022-08-11T15:10:00;3.73;;;2.17;;
7361;SDS011;3721;44.490;11.220;2022-08-11T15:12:29;6.23;;;2.10;;
7361;SDS011;3721;44.490;11.220;2022-08-11T15:14:56;5.80;;;2.10;;
7361;SDS011;3721;44.490;11.220;2022-08-11T15:17:40;3.47;;;2.00;;
7361;SDS011;3721;44.490;11.220;2022-08-11T15:20:12;3.60;;;1.90;;
7361;SDS011;3721;44.490;11.220;2022-08-11T15:22:57;3.70;;;2.00;;
7361;SDS011;3721;44.490;11.220;2022-08-11T15:25:42;5.10;;;1.80;;
7361;SDS011;3721;44.490;11.220;2022-08-11T15:28:14;3.47;;;1.83;;
7361;SDS011;3721;44.490;11.220;2022-08-11T15:31:01;5.07;;;2.10;;
7361;SDS011;3721;44.490;11.220;2022-08-11T15:34:07;4.50;;;1.73;;
7361;SDS011;3721;44.490;11.220;2022-08-11T15:36:56;4.30;;;2.10;;
7361;SDS011;3721;44.490;11.220;2022-08-11T15:42:44;3.27;;;1.77;;
7361;SDS011;3721;44.490;11.220;2022-08-11T15:45:46;3.50;;;2.07;;
7361;SDS011;3721;44.490;11.220;2022-08-11T15:48:36;4.80;;;2.00;;
7361;SDS011;3721;44.490;11.220;2022-08-11T15:51:11;4.37;;;2.03;;
7361;SDS011;3721;44.490;11.220;2022-08-11T15:53:49;3.93;;;2.10;;
7361;SDS011;3721;44.490;11.220;2022-08-11T15:56:17;4.03;;;2.20;;
7361;SDS011;3721;44.490;11.220;2022-08-11T15:58:47;6.87;;;2.20;;
7361;SDS011;3721;44.490;11.220;2022-08-11T16:01:35;4.63;;;1.90;;
7361;SDS011;3721;44.490;11.220;2022-08-11T16:04:22;4.17;;;2.17;;
7361;SDS011;3721;44.490;11.220;2022-08-11T16:06:56;5.10;;;2.10;;
7361;SDS011;3721;44.490;11.220;2022-08-11T16:09:30;9.03;;;2.10;;
7361;SDS011;3721;44.490;11.220;2022-08-11T16:12:03;3.67;;;1.80;;
7361;SDS011;3721;44.490;11.220;2022-08-11T16:14:36;4.43;;;2.20;;
7361;SDS011;3721;44.490;11.220;2022-08-11T16:17:25;4.90;;;2.10;;
7361;SDS011;3721;44.490;11.220;2022-08-11T16:19:54;4.00;;;2.17;;
7361;SDS011;3721;44.490;11.220;2022-08-11T16:22:23;4.70;;;2.20;;
7361;SDS011;3721;44.490;11.220;2022-08-11T16:25:07;3.87;;;2.27;;
7361;SDS011;3721;44.490;11.220;2022-08-11T16:27:37;4.90;;;2.13;;
7361;SDS011;3721;44.490;11.220;2022-08-11T16:30:05;3.77;;;2.10;;
7361;SDS011;3721;44.490;11.220;2022-08-11T16:32:34;3.20;;;1.70;;
7361;SDS011;3721;44.490;11.220;2022-08-11T16:35:08;3.87;;;1.90;;
7361;SDS011;3721;44.490;11.220;2022-08-11T16:37:57;4.33;;;1.90;;
7361;SDS011;3721;44.490;11.220;2022-08-11T16:40:43;4.37;;;1.90;;
7361;SDS011;3721;44.490;11.220;2022-08-11T16:43:11;8.03;;;2.20;;
7361;SDS011;3721;44.490;11.220;2022-08-11T16:45:58;5.10;;;2.30;;
7361;SDS011;3721;44.490;11.220;2022-08-11T16:48:47;4.07;;;1.80;;
7361;SDS011;3721;44.490;11.220;2022-08-11T16:51:13;5.23;;;1.80;;
7361;SDS011;3721;44.490;11.220;2022-08-11T16:53:43;4.80;;;1.80;;
7361;SDS011;3721;44.490;11.220;2022-08-11T16:56:10;3.27;;;1.80;;
7361;SDS011;3721;44.490;11.220;2022-08-11T16:58:41;5.33;;;1.80;;
7361;SDS011;3721;44.490;11.220;2022-08-11T17:01:27;4.97;;;1.77;;
7361;SDS011;3721;44.490;11.220;2022-08-11T17:03:58;3.43;;;1.80;;
7361;SDS011;3721;44.490;11.220;2022-08-11T17:07:04;3.90;;;2.00;;
7361;SDS011;3721;44.490;11.220;2022-08-11T17:09:49;5.00;;;1.80;;
7361;SDS011;3721;44.490;11.220;2022-08-11T17:12:35;3.37;;;1.67;;
7361;SDS011;3721;44.490;11.220;2022-08-11T17:15:22;3.47;;;2.03;;
7361;SDS011;3721;44.490;11.220;2022-08-11T17:18:09;3.30;;;1.83;;
7361;SDS011;3721;44.490;11.220;2022-08-11T17:21:00;4.43;;;1.90;;
7361;SDS011;3721;44.490;11.220;2022-08-11T17:23:28;4.30;;;2.03;;
7361;SDS011;3721;44.490;11.220;2022-08-11T17:29:40;6.23;;;2.00;;
7361;SDS011;3721;44.490;11.220;2022-08-11T17:32:21;4.53;;;1.90;;
7361;SDS011;3721;44.490;11.220;2022-08-11T17:35:14;5.20;;;2.20;;
7361;SDS011;3721;44.490;11.220;2022-08-11T17:40:30;7.37;;;2.00;;
7361;SDS011;3721;44.490;11.220;2022-08-11T17:43:01;4.30;;;1.80;;
7361;SDS011;3721;44.490;11.220;2022-08-11T17:45:46;7.93;;;1.90;;
7361;SDS011;3721;44.490;11.220;2022-08-11T17:48:32;5.17;;;2.13;;
7361;SDS011;3721;44.490;11.220;2022-08-11T17:51:10;3.40;;;1.53;;
7361;SDS011;3721;44.490;11.220;2022-08-11T17:53:59;4.13;;;1.67;;
7361;SDS011;3721;44.490;11.220;2022-08-11T17:56:43;4.27;;;1.77;;
7361;SDS011;3721;44.490;11.220;2022-08-11T17:59:29;7.70;;;2.30;;
7361;SDS011;3721;44.490;11.220;2022-08-11T18:02:15;7.03;;;1.77;;
7361;SDS011;3721;44.490;11.220;2022-08-11T18:05:17;4.27;;;1.80;;
7361;SDS011;3721;44.490;11.220;2022-08-11T18:07:44;9.00;;;2.47;;
7361;SDS011;3721;44.490;11.220;2022-08-11T18:10:29;4.07;;;1.90;;
7361;SDS011;3721;44.490;11.220;2022-08-11T18:13:18;2.97;;;1.53;;
7361;SDS011;3721;44.490;11.220;2022-08-11T18:16:06;7.20;;;2.00;;
7361;SDS011;3721;44.490;11.220;2022-08-11T18:18:52;3.93;;;1.90;;
7361;SDS011;3721;44.490;11.220;2022-08-11T18:21:37;8.30;;;2.17;;
7361;SDS011;3721;44.490;11.220;2022-08-11T18:24:24;4.40;;;2.07;;
7361;SDS011;3721;44.490;11.220;2022-08-11T18:27:13;11.90;;;1.93;;
7361;SDS011;3721;44.490;11.220;2022-08-11T18:30:00;5.20;;;2.10;;
7361;SDS011;3721;44.490;11.220;2022-08-11T18:32:47;3.43;;;1.97;;
7361;SDS011;3721;44.490;11.220;2022-08-11T18:35:32;3.53;;;1.70;;
7361;SDS011;3721;44.490;11.220;2022-08-11T18:38:18;4.40;;;1.60;;
7361;SDS011;3721;44.490;11.220;2022-08-11T18:41:05;3.70;;;1.90;;
7361;SDS011;3721;44.490;11.220;2022-08-11T18:43:51;4.53;;;2.30;;
7361;SDS011;3721;44.490;11.220;2022-08-11T18:46:39;3.97;;;1.80;;
7361;SDS011;3721;44.490;11.220;2022-08-11T18:49:28;4.43;;;1.70;;
7361;SDS011;3721;44.490;11.220;2022-08-11T18:52:17;3.27;;;1.87;;
7361;SDS011;3721;44.490;11.220;2022-08-11T18:55:04;2.90;;;1.50;;
7361;SDS011;3721;44.490;11.220;2022-08-11T18:57:53;4.50;;;2.10;;
7361;SDS011;3721;44.490;11.220;2022-08-11T19:00:40;5.13;;;1.80;;
7361;SDS011;3721;44.490;11.220;2022-08-11T19:03:27;5.07;;;2.23;;
7361;SDS011;3721;44.490;11.220;2022-08-11T19:06:13;5.37;;;2.23;;
7361;SDS011;3721;44.490;11.220;2022-08-11T19:09:01;4.40;;;2.20;;
7361;SDS011;3721;44.490;11.220;2022-08-11T19:11:46;4.33;;;2.00;;
7361;SDS011;3721;44.490;11.220;2022-08-11T19:14:37;5.40;;;2.03;;
7361;SDS011;3721;44.490;11.220;2022-08-11T19:17:54;6.40;;;2.57;;
7361;SDS011;3721;44.490;11.220;2022-08-11T19:20:44;4.53;;;2.10;;
7361;SDS011;3721;44.490;11.220;2022-08-11T19:23:40;3.83;;;2.07;;
7361;SDS011;3721;44.490;11.220;2022-08-11T19:26:40;3.97;;;2.00;;
7361;SDS011;3721;44.490;11.220;2022-08-11T19:29:28;10.53;;;2.10;;
7361;SDS011;3721;44.490;11.220;2022-08-11T19:32:19;3.43;;;2.00;;
7361;SDS011;3721;44.490;11.220;2022-08-11T19:35:05;6.20;;;2.00;;
7361;SDS011;3721;44.490;11.220;2022-08-11T19:37:50;3.47;;;1.80;;
7361;SDS011;3721;44.490;11.220;2022-08-11T19:40:36;4.67;;;1.97;;
7361;SDS011;3721;44.490;11.220;2022-08-11T19:43:22;8.17;;;2.27;;
7361;SDS011;3721;44.490;11.220;2022-08-11T19:46:07;4.47;;;2.00;;
7361;SDS011;3721;44.490;11.220;2022-08-11T19:48:53;4.90;;;1.77;;
7361;SDS011;3721;44.490;11.220;2022-08-11T19:51:40;5.00;;;2.13;;
7361;SDS011;3721;44.490;11.220;2022-08-11T19:54:27;3.80;;;1.93;;
7361;SDS011;3721;44.490;11.220;2022-08-11T19:57:15;5.13;;;1.90;;
7361;SDS011;3721;44.490;11.220;2022-08-11T20:00:00;11.90;;;2.17;;
7361;SDS011;3721;44.490;11.220;2022-08-11T20:02:47;5.03;;;2.33;;
7361;SDS011;3721;44.490;11.220;2022-08-11T20:05:32;4.00;;;1.90;;
7361;SDS011;3721;44.490;11.220;2022-08-11T20:08:17;4.10;;;1.80;;
7361;SDS011;3721;44.490;11.220;2022-08-11T20:11:03;4.03;;;2.43;;
7361;SDS011;3721;44.490;11.220;2022-08-11T20:13:49;7.20;;;2.40;;
7361;SDS011;3721;44.490;11.220;2022-08-11T20:16:34;3.63;;;2.10;;
7361;SDS011;3721;44.490;11.220;2022-08-11T20:19:19;4.23;;;2.30;;
7361;SDS011;3721;44.490;11.220;2022-08-11T20:22:06;6.33;;;2.73;;